FFT1927 KOKC-KDEN
Flight info
| Callsign | FFT1927 |
|---|---|
| Flight time | 1h 19m |
| Altitude | 38000 |
| Route | STPHN3 ZEEWE KK36A HALEN NIIXX4 |
| Aircraft | A320/M-SDE3FGHIRWY/LB1 |
Departure
| Time | 2026-04-23 18:19 |
|---|---|
| Airport | OKC Will Rogers World Airport (KOKC) |
Arrival
| Time | 2026-04-23 19:38 |
|---|---|
| Airport | Denver International Airport (KDEN) |
| Time | Latitude | Longitude | Altitude | Speed | Heading |
|---|---|---|---|---|---|
| 2026-04-23 17:35 | 35.39484 | -97.59752 | 1299 ft | 0 kts | 0° |
| 2026-04-23 18:07 | 35.39475 | -97.59751 | 1298 ft | 4 kts | 3° |
| 2026-04-23 18:07 | 35.39448 | -97.59754 | 1298 ft | 4 kts | 1° |
| 2026-04-23 18:07 | 35.39421 | -97.59751 | 1297 ft | 4 kts | 337° |
| 2026-04-23 18:07 | 35.39406 | -97.59737 | 1297 ft | 0 kts | 292° |
| 2026-04-23 18:11 | 35.39406 | -97.59738 | 1297 ft | 1 kts | 293° |
| 2026-04-23 18:12 | 35.39416 | -97.59802 | 1295 ft | 7 kts | 271° |
| 2026-04-23 18:12 | 35.39417 | -97.59845 | 1294 ft | 9 kts | 271° |
| 2026-04-23 18:12 | 35.39417 | -97.59932 | 1293 ft | 11 kts | 270° |
| 2026-04-23 18:12 | 35.39431 | -97.60025 | 1291 ft | 11 kts | 261° |
| 2026-04-23 18:13 | 35.39435 | -97.60111 | 1289 ft | 10 kts | 306° |
| 2026-04-23 18:13 | 35.39489 | -97.60174 | 1286 ft | 11 kts | 317° |
| 2026-04-23 18:13 | 35.39544 | -97.60238 | 1287 ft | 10 kts | 316° |
| 2026-04-23 18:13 | 35.39595 | -97.60299 | 1285 ft | 10 kts | 315° |
| 2026-04-23 18:14 | 35.39647 | -97.60360 | 1283 ft | 10 kts | 319° |
| 2026-04-23 18:14 | 35.39709 | -97.60398 | 1282 ft | 9 kts | 347° |
| 2026-04-23 18:14 | 35.39777 | -97.60400 | 1282 ft | 10 kts | 0° |
| 2026-04-23 18:14 | 35.39862 | -97.60401 | 1284 ft | 14 kts | 360° |
| 2026-04-23 18:15 | 35.39955 | -97.60401 | 1290 ft | 13 kts | 0° |
| 2026-04-23 18:15 | 35.40041 | -97.60400 | 1288 ft | 12 kts | 0° |
| 2026-04-23 18:15 | 35.40112 | -97.60400 | 1290 ft | 10 kts | 360° |
| 2026-04-23 18:15 | 35.40187 | -97.60401 | 1292 ft | 11 kts | 359° |
| 2026-04-23 18:16 | 35.40266 | -97.60402 | 1294 ft | 11 kts | 0° |
| 2026-04-23 18:16 | 35.40344 | -97.60401 | 1295 ft | 11 kts | 0° |
| 2026-04-23 18:16 | 35.40413 | -97.60401 | 1295 ft | 10 kts | 0° |
| 2026-04-23 18:17 | 35.40569 | -97.60436 | 1295 ft | 9 kts | 306° |
| 2026-04-23 18:17 | 35.40579 | -97.60501 | 1296 ft | 7 kts | 272° |
| 2026-04-23 18:17 | 35.40579 | -97.60552 | 1295 ft | 5 kts | 258° |
| 2026-04-23 18:17 | 35.40546 | -97.60575 | 1295 ft | 7 kts | 181° |
| 2026-04-23 18:18 | 35.40495 | -97.60573 | 1295 ft | 8 kts | 180° |
| 2026-04-23 18:18 | 35.40378 | -97.60573 | 1293 ft | 41 kts | 180° |
| 2026-04-23 18:18 | 35.39861 | -97.60573 | 1286 ft | 105 kts | 180° |
| 2026-04-23 18:18 | 35.38957 | -97.60573 | 1323 ft | 149 kts | 181° |
| 2026-04-23 18:19 | 35.37930 | -97.60541 | 1972 ft | 149 kts | 184° |
| 2026-04-23 18:19 | 35.36972 | -97.60988 | 2707 ft | 149 kts | 207° |
| 2026-04-23 18:19 | 35.36046 | -97.61582 | 3277 ft | 156 kts | 205° |
| 2026-04-23 18:19 | 35.35222 | -97.62576 | 3518 ft | 187 kts | 242° |
| 2026-04-23 18:20 | 35.35148 | -97.64329 | 3826 ft | 227 kts | 271° |
| 2026-04-23 18:20 | 35.35538 | -97.66336 | 4208 ft | 255 kts | 279° |
| 2026-04-23 18:20 | 35.36088 | -97.68438 | 4872 ft | 266 kts | 282° |
| 2026-04-23 18:20 | 35.36694 | -97.70591 | 5777 ft | 267 kts | 283° |
| 2026-04-23 18:21 | 35.37294 | -97.72740 | 6689 ft | 266 kts | 283° |
| 2026-04-23 18:21 | 35.37876 | -97.74899 | 7538 ft | 267 kts | 282° |
| 2026-04-23 18:21 | 35.38442 | -97.77082 | 8329 ft | 270 kts | 281° |
| 2026-04-23 18:21 | 35.38999 | -97.79288 | 9159 ft | 273 kts | 281° |
| 2026-04-23 18:22 | 35.39554 | -97.81524 | 9949 ft | 275 kts | 280° |
| 2026-04-23 18:22 | 35.40117 | -97.83822 | 10434 ft | 291 kts | 280° |
| 2026-04-23 18:22 | 35.40713 | -97.86299 | 10715 ft | 312 kts | 281° |
| 2026-04-23 18:22 | 35.41340 | -97.88888 | 11325 ft | 320 kts | 281° |
| 2026-04-23 18:23 | 35.41988 | -97.91522 | 12059 ft | 324 kts | 282° |
| 2026-04-23 18:23 | 35.43297 | -97.96831 | 13567 ft | 330 kts | 282° |
| 2026-04-23 18:24 | 35.44629 | -98.02278 | 14881 ft | 335 kts | 283° |
| 2026-04-23 18:24 | 35.45305 | -98.05032 | 15530 ft | 338 kts | 283° |
| 2026-04-23 18:24 | 35.45975 | -98.07776 | 16171 ft | 341 kts | 283° |
| 2026-04-23 18:25 | 35.47311 | -98.13425 | 17457 ft | 346 kts | 279° |
| 2026-04-23 18:25 | 35.47643 | -98.16355 | 18068 ft | 347 kts | 274° |
| 2026-04-23 18:25 | 35.47905 | -98.19310 | 18614 ft | 350 kts | 274° |
| 2026-04-23 18:25 | 35.48168 | -98.22293 | 19159 ft | 352 kts | 274° |
| 2026-04-23 18:26 | 35.48435 | -98.25265 | 19686 ft | 355 kts | 275° |
| 2026-04-23 18:26 | 35.49057 | -98.28219 | 20197 ft | 362 kts | 287° |
| 2026-04-23 18:26 | 35.49925 | -98.31127 | 20725 ft | 364 kts | 287° |
| 2026-04-23 18:26 | 35.50820 | -98.34067 | 21224 ft | 367 kts | 287° |
| 2026-04-23 18:27 | 35.51725 | -98.37016 | 21744 ft | 370 kts | 287° |
| 2026-04-23 18:27 | 35.52625 | -98.39952 | 22246 ft | 372 kts | 287° |
| 2026-04-23 18:27 | 35.53544 | -98.42966 | 22751 ft | 375 kts | 287° |
| 2026-04-23 18:27 | 35.54461 | -98.45981 | 23249 ft | 378 kts | 287° |
| 2026-04-23 18:28 | 35.55376 | -98.48979 | 23652 ft | 380 kts | 287° |
| 2026-04-23 18:28 | 35.56309 | -98.52039 | 24067 ft | 382 kts | 287° |
| 2026-04-23 18:28 | 35.57243 | -98.55109 | 24477 ft | 384 kts | 287° |
| 2026-04-23 18:28 | 35.58179 | -98.58204 | 24882 ft | 386 kts | 287° |
| 2026-04-23 18:29 | 35.59104 | -98.61267 | 25269 ft | 388 kts | 287° |
| 2026-04-23 18:29 | 35.60043 | -98.64382 | 25668 ft | 390 kts | 287° |
| 2026-04-23 18:29 | 35.60988 | -98.67518 | 26058 ft | 392 kts | 287° |
| 2026-04-23 18:29 | 35.61938 | -98.70675 | 26439 ft | 394 kts | 287° |
| 2026-04-23 18:30 | 35.62891 | -98.73851 | 26806 ft | 396 kts | 287° |
| 2026-04-23 18:30 | 35.63846 | -98.77033 | 27187 ft | 398 kts | 287° |
| 2026-04-23 18:30 | 35.64808 | -98.80229 | 27549 ft | 400 kts | 287° |
| 2026-04-23 18:30 | 35.65776 | -98.83448 | 27911 ft | 402 kts | 287° |
| 2026-04-23 18:31 | 35.66744 | -98.86676 | 28269 ft | 403 kts | 287° |
| 2026-04-23 18:31 | 35.67704 | -98.89886 | 28619 ft | 405 kts | 287° |
| 2026-04-23 18:31 | 35.68678 | -98.93157 | 28968 ft | 407 kts | 287° |
| 2026-04-23 18:31 | 35.69660 | -98.96449 | 29311 ft | 409 kts | 287° |
| 2026-04-23 18:32 | 35.70646 | -98.99747 | 29647 ft | 411 kts | 287° |
| 2026-04-23 18:32 | 35.71632 | -99.03062 | 29929 ft | 413 kts | 287° |
| 2026-04-23 18:32 | 35.72610 | -99.06349 | 30201 ft | 414 kts | 287° |
| 2026-04-23 18:32 | 35.73602 | -99.09683 | 30495 ft | 415 kts | 287° |
| 2026-04-23 18:33 | 35.74599 | -99.13034 | 30764 ft | 416 kts | 287° |
| 2026-04-23 18:33 | 35.75594 | -99.16394 | 31050 ft | 417 kts | 287° |
| 2026-04-23 18:33 | 35.76586 | -99.19737 | 31460 ft | 415 kts | 287° |
| 2026-04-23 18:33 | 35.77576 | -99.23082 | 31621 ft | 414 kts | 287° |
| 2026-04-23 18:34 | 35.78549 | -99.26368 | 31640 ft | 400 kts | 287° |
| 2026-04-23 18:34 | 35.80405 | -99.32658 | 31641 ft | 389 kts | 287° |
| 2026-04-23 18:35 | 35.82240 | -99.38898 | 31639 ft | 387 kts | 287° |
| 2026-04-23 18:35 | 35.84068 | -99.45132 | 31634 ft | 386 kts | 286° |
| 2026-04-23 18:36 | 35.85893 | -99.51362 | 31634 ft | 386 kts | 286° |
| 2026-04-23 18:36 | 35.87717 | -99.57602 | 31630 ft | 386 kts | 286° |
| 2026-04-23 18:37 | 35.89520 | -99.63797 | 31626 ft | 386 kts | 286° |
| 2026-04-23 18:37 | 35.91336 | -99.70038 | 31623 ft | 385 kts | 286° |
| 2026-04-23 18:38 | 35.93142 | -99.76240 | 31623 ft | 385 kts | 286° |
| 2026-04-23 18:38 | 35.94947 | -99.82462 | 31629 ft | 384 kts | 286° |
| 2026-04-23 18:39 | 35.96747 | -99.88674 | 31633 ft | 384 kts | 286° |
| 2026-04-23 18:39 | 35.98543 | -99.94890 | 31630 ft | 383 kts | 285° |
| 2026-04-23 18:40 | 36.00993 | -100.00770 | 31636 ft | 392 kts | 302° |
| 2026-04-23 18:40 | 36.04905 | -100.05537 | 31646 ft | 399 kts | 311° |
| 2026-04-23 18:41 | 36.09024 | -100.10163 | 31649 ft | 399 kts | 311° |
| 2026-04-23 18:41 | 36.13132 | -100.14800 | 31656 ft | 398 kts | 311° |
| 2026-04-23 18:42 | 36.17200 | -100.19408 | 31660 ft | 398 kts | 310° |
| 2026-04-23 18:42 | 36.21290 | -100.24047 | 31662 ft | 398 kts | 310° |
| 2026-04-23 18:43 | 36.25374 | -100.28683 | 31661 ft | 397 kts | 310° |
| 2026-04-23 18:43 | 36.29419 | -100.33290 | 31667 ft | 397 kts | 310° |
| 2026-04-23 18:44 | 36.33498 | -100.37934 | 31690 ft | 397 kts | 310° |
| 2026-04-23 18:44 | 36.37574 | -100.42571 | 31711 ft | 397 kts | 310° |
| 2026-04-23 18:45 | 36.41643 | -100.47209 | 31726 ft | 397 kts | 310° |
| 2026-04-23 18:45 | 36.45702 | -100.51853 | 31739 ft | 396 kts | 310° |
| 2026-04-23 18:46 | 36.49769 | -100.56509 | 31746 ft | 396 kts | 310° |
| 2026-04-23 18:46 | 36.53799 | -100.61135 | 31749 ft | 396 kts | 309° |
| 2026-04-23 18:47 | 36.57846 | -100.65792 | 31740 ft | 395 kts | 309° |
| 2026-04-23 18:47 | 36.61890 | -100.70442 | 31732 ft | 395 kts | 309° |
| 2026-04-23 18:48 | 36.65903 | -100.75064 | 31730 ft | 395 kts | 309° |
| 2026-04-23 18:48 | 36.69941 | -100.79727 | 31712 ft | 395 kts | 309° |
| 2026-04-23 18:49 | 36.73969 | -100.84375 | 31708 ft | 394 kts | 309° |
| 2026-04-23 18:49 | 36.77974 | -100.89009 | 31725 ft | 394 kts | 309° |
| 2026-04-23 18:50 | 36.81326 | -100.92895 | 31741 ft | 394 kts | 309° |
| 2026-04-23 18:50 | 36.86019 | -100.98343 | 31763 ft | 394 kts | 308° |
| 2026-04-23 18:51 | 36.90027 | -101.03001 | 31771 ft | 393 kts | 308° |
| 2026-04-23 18:51 | 36.94014 | -101.07648 | 31776 ft | 393 kts | 308° |
| 2026-04-23 18:52 | 36.98012 | -101.12311 | 31774 ft | 392 kts | 308° |
| 2026-04-23 18:52 | 37.02002 | -101.16968 | 31764 ft | 392 kts | 308° |
| 2026-04-23 18:53 | 37.05960 | -101.21602 | 31768 ft | 391 kts | 308° |
| 2026-04-23 18:53 | 37.09945 | -101.26270 | 31787 ft | 391 kts | 308° |
| 2026-04-23 18:54 | 37.13930 | -101.30937 | 31795 ft | 391 kts | 307° |
| 2026-04-23 18:54 | 37.17901 | -101.35601 | 31797 ft | 391 kts | 307° |
| 2026-04-23 18:55 | 37.21845 | -101.40240 | 31800 ft | 390 kts | 307° |
| 2026-04-23 18:55 | 37.25809 | -101.44922 | 31791 ft | 390 kts | 307° |
| 2026-04-23 18:56 | 37.29105 | -101.48807 | 31778 ft | 390 kts | 307° |
| 2026-04-23 18:56 | 37.33049 | -101.53462 | 31762 ft | 389 kts | 307° |
| 2026-04-23 18:57 | 37.37634 | -101.58891 | 31755 ft | 388 kts | 306° |
| 2026-04-23 18:57 | 37.40894 | -101.62768 | 31773 ft | 388 kts | 306° |
| 2026-04-23 18:58 | 37.44837 | -101.67439 | 31790 ft | 387 kts | 306° |
| 2026-04-23 18:58 | 37.48736 | -101.72071 | 31803 ft | 387 kts | 306° |
| 2026-04-23 18:59 | 37.52644 | -101.76723 | 31802 ft | 386 kts | 306° |
| 2026-04-23 18:59 | 37.56557 | -101.81387 | 31802 ft | 386 kts | 306° |
| 2026-04-23 19:00 | 37.60460 | -101.86055 | 31798 ft | 386 kts | 306° |
| 2026-04-23 19:00 | 37.64343 | -101.90698 | 31780 ft | 386 kts | 306° |
| 2026-04-23 19:01 | 37.68273 | -101.95395 | 31755 ft | 386 kts | 305° |
| 2026-04-23 19:01 | 37.72163 | -102.00073 | 31734 ft | 386 kts | 305° |
| 2026-04-23 19:02 | 37.76036 | -102.04738 | 31722 ft | 387 kts | 305° |
| 2026-04-23 19:02 | 37.79943 | -102.09441 | 31699 ft | 387 kts | 305° |
| 2026-04-23 19:03 | 37.83809 | -102.14118 | 31697 ft | 385 kts | 304° |
| 2026-04-23 19:03 | 37.87503 | -102.18988 | 31702 ft | 382 kts | 302° |
| 2026-04-23 19:04 | 37.91077 | -102.23946 | 31704 ft | 381 kts | 301° |
| 2026-04-23 19:04 | 37.94669 | -102.28912 | 31707 ft | 386 kts | 302° |
| 2026-04-23 19:05 | 37.98305 | -102.33840 | 31718 ft | 381 kts | 302° |
| 2026-04-23 19:05 | 38.01931 | -102.38751 | 31735 ft | 379 kts | 302° |
| 2026-04-23 19:06 | 38.05506 | -102.43616 | 31754 ft | 379 kts | 301° |
| 2026-04-23 19:06 | 38.09091 | -102.48521 | 31771 ft | 378 kts | 301° |
| 2026-04-23 19:07 | 38.12673 | -102.53413 | 31788 ft | 378 kts | 301° |
| 2026-04-23 19:07 | 38.16249 | -102.58307 | 31791 ft | 377 kts | 301° |
| 2026-04-23 19:08 | 38.19810 | -102.63173 | 31793 ft | 377 kts | 301° |
| 2026-04-23 19:08 | 38.23368 | -102.68050 | 31785 ft | 376 kts | 301° |
| 2026-04-23 19:09 | 38.26930 | -102.72933 | 31779 ft | 376 kts | 301° |
| 2026-04-23 19:09 | 38.30455 | -102.77796 | 31761 ft | 375 kts | 301° |
| 2026-04-23 19:10 | 38.33998 | -102.82698 | 31738 ft | 375 kts | 301° |
| 2026-04-23 19:10 | 38.35768 | -102.85135 | 31550 ft | 372 kts | 301° |
| 2026-04-23 19:10 | 38.37522 | -102.87545 | 31291 ft | 368 kts | 301° |
| 2026-04-23 19:10 | 38.39256 | -102.89938 | 31041 ft | 367 kts | 300° |
| 2026-04-23 19:11 | 38.40982 | -102.92327 | 30803 ft | 365 kts | 300° |
| 2026-04-23 19:11 | 38.42675 | -102.94682 | 30570 ft | 364 kts | 300° |
| 2026-04-23 19:11 | 38.44385 | -102.97066 | 30335 ft | 364 kts | 300° |
| 2026-04-23 19:11 | 38.46096 | -102.99444 | 30101 ft | 363 kts | 300° |
| 2026-04-23 19:12 | 38.47254 | -103.01048 | 29938 ft | 363 kts | 300° |
| 2026-04-23 19:12 | 38.49529 | -103.04189 | 29608 ft | 362 kts | 300° |
| 2026-04-23 19:12 | 38.51235 | -103.06553 | 29335 ft | 361 kts | 300° |
| 2026-04-23 19:12 | 38.52919 | -103.08894 | 29056 ft | 361 kts | 300° |
| 2026-04-23 19:13 | 38.54619 | -103.11259 | 28778 ft | 360 kts | 300° |
| 2026-04-23 19:13 | 38.56308 | -103.13617 | 28518 ft | 359 kts | 300° |
| 2026-04-23 19:13 | 38.57993 | -103.15974 | 28249 ft | 359 kts | 300° |
| 2026-04-23 19:13 | 38.59659 | -103.18302 | 27986 ft | 358 kts | 300° |
| 2026-04-23 19:14 | 38.61347 | -103.20666 | 27718 ft | 357 kts | 301° |
| 2026-04-23 19:14 | 38.63028 | -103.23017 | 27462 ft | 357 kts | 301° |
| 2026-04-23 19:14 | 38.64681 | -103.25331 | 27200 ft | 356 kts | 301° |
| 2026-04-23 19:14 | 38.66357 | -103.27676 | 26943 ft | 356 kts | 301° |
| 2026-04-23 19:15 | 38.68030 | -103.30019 | 26692 ft | 355 kts | 301° |
| 2026-04-23 19:15 | 38.69696 | -103.32354 | 26444 ft | 355 kts | 301° |
| 2026-04-23 19:15 | 38.71364 | -103.34687 | 26189 ft | 354 kts | 301° |
| 2026-04-23 19:15 | 38.73005 | -103.36981 | 25941 ft | 354 kts | 302° |
| 2026-04-23 19:16 | 38.74670 | -103.39308 | 25701 ft | 353 kts | 302° |
| 2026-04-23 19:16 | 38.76323 | -103.41630 | 25453 ft | 353 kts | 302° |
| 2026-04-23 19:16 | 38.77975 | -103.43954 | 25214 ft | 352 kts | 302° |
| 2026-04-23 19:17 | 38.81271 | -103.48606 | 24737 ft | 351 kts | 302° |
| 2026-04-23 19:17 | 38.82914 | -103.50926 | 24497 ft | 351 kts | 303° |
| 2026-04-23 19:17 | 38.84556 | -103.53246 | 24262 ft | 350 kts | 303° |
| 2026-04-23 19:17 | 38.86178 | -103.55537 | 24031 ft | 350 kts | 303° |
| 2026-04-23 19:18 | 38.87817 | -103.57851 | 23799 ft | 350 kts | 303° |
| 2026-04-23 19:18 | 38.89455 | -103.60169 | 23569 ft | 349 kts | 303° |
| 2026-04-23 19:18 | 38.91087 | -103.62484 | 23337 ft | 349 kts | 304° |
| 2026-04-23 19:18 | 38.92718 | -103.64799 | 23114 ft | 349 kts | 304° |
| 2026-04-23 19:19 | 38.95974 | -103.69423 | 22573 ft | 349 kts | 305° |
| 2026-04-23 19:19 | 38.97596 | -103.71736 | 22312 ft | 348 kts | 305° |
| 2026-04-23 19:20 | 39.00809 | -103.76325 | 21796 ft | 346 kts | 306° |
| 2026-04-23 19:20 | 39.02426 | -103.78625 | 21540 ft | 346 kts | 307° |
| 2026-04-23 19:20 | 39.04045 | -103.80930 | 21282 ft | 345 kts | 307° |
| 2026-04-23 19:20 | 39.05650 | -103.83221 | 21029 ft | 344 kts | 307° |
| 2026-04-23 19:21 | 39.07248 | -103.85505 | 20774 ft | 343 kts | 307° |
| 2026-04-23 19:21 | 39.10409 | -103.90033 | 20268 ft | 340 kts | 308° |
| 2026-04-23 19:21 | 39.11992 | -103.92296 | 20015 ft | 339 kts | 308° |
| 2026-04-23 19:22 | 39.13566 | -103.94547 | 19765 ft | 337 kts | 308° |
| 2026-04-23 19:22 | 39.15129 | -103.96803 | 19512 ft | 335 kts | 307° |
| 2026-04-23 19:22 | 39.18205 | -104.01281 | 19004 ft | 331 kts | 307° |
| 2026-04-23 19:23 | 39.19729 | -104.03501 | 18760 ft | 330 kts | 308° |
| 2026-04-23 19:23 | 39.21250 | -104.05716 | 18511 ft | 328 kts | 308° |
| 2026-04-23 19:23 | 39.22741 | -104.07886 | 18262 ft | 326 kts | 308° |
| 2026-04-23 19:24 | 39.25736 | -104.12246 | 17749 ft | 318 kts | 308° |
| 2026-04-23 19:24 | 39.27189 | -104.14362 | 17472 ft | 313 kts | 308° |
| 2026-04-23 19:24 | 39.29822 | -104.18735 | 16863 ft | 304 kts | 295° |
| 2026-04-23 19:25 | 39.30990 | -104.23867 | 16102 ft | 299 kts | 281° |
| 2026-04-23 19:25 | 39.31821 | -104.29132 | 15331 ft | 298 kts | 281° |
| 2026-04-23 19:26 | 39.32657 | -104.34368 | 14672 ft | 294 kts | 282° |
| 2026-04-23 19:26 | 39.33065 | -104.36912 | 14550 ft | 285 kts | 282° |
| 2026-04-23 19:27 | 39.33831 | -104.41706 | 13986 ft | 263 kts | 282° |
| 2026-04-23 19:27 | 39.34895 | -104.48445 | 13047 ft | 259 kts | 282° |
| 2026-04-23 19:28 | 39.35899 | -104.52937 | 12262 ft | 263 kts | 303° |
| 2026-04-23 19:28 | 39.38836 | -104.55441 | 11508 ft | 254 kts | 341° |
| 2026-04-23 19:29 | 39.40490 | -104.56043 | 11149 ft | 247 kts | 341° |
| 2026-04-23 19:29 | 39.43757 | -104.57224 | 10445 ft | 245 kts | 342° |
| 2026-04-23 19:30 | 39.46498 | -104.58216 | 9847 ft | 247 kts | 342° |
| 2026-04-23 19:30 | 39.46922 | -104.58369 | 9778 ft | 247 kts | 342° |
| 2026-04-23 19:30 | 39.50083 | -104.59518 | 9077 ft | 247 kts | 342° |
| 2026-04-23 19:31 | 39.51685 | -104.60103 | 8952 ft | 237 kts | 342° |
| 2026-04-23 19:31 | 39.53232 | -104.60667 | 8935 ft | 223 kts | 342° |
| 2026-04-23 19:31 | 39.54685 | -104.61197 | 8935 ft | 210 kts | 342° |
| 2026-04-23 19:31 | 39.56084 | -104.61709 | 8942 ft | 207 kts | 342° |
| 2026-04-23 19:32 | 39.57444 | -104.62207 | 8952 ft | 204 kts | 342° |
| 2026-04-23 19:32 | 39.58809 | -104.62708 | 8959 ft | 203 kts | 342° |
| 2026-04-23 19:32 | 39.60177 | -104.63210 | 8968 ft | 202 kts | 342° |
| 2026-04-23 19:32 | 39.61518 | -104.63702 | 8975 ft | 203 kts | 342° |
| 2026-04-23 19:33 | 39.62879 | -104.64185 | 8980 ft | 203 kts | 347° |
| 2026-04-23 19:33 | 39.64295 | -104.64366 | 8965 ft | 206 kts | 355° |
| 2026-04-23 19:33 | 39.67143 | -104.64369 | 8536 ft | 204 kts | 358° |
| 2026-04-23 19:34 | 39.68542 | -104.64351 | 8266 ft | 198 kts | 358° |
| 2026-04-23 19:34 | 39.69903 | -104.64334 | 7998 ft | 193 kts | 358° |
| 2026-04-23 19:34 | 39.72508 | -104.64301 | 7501 ft | 179 kts | 358° |
| 2026-04-23 19:35 | 39.73707 | -104.64286 | 7274 ft | 169 kts | 358° |
| 2026-04-23 19:35 | 39.74857 | -104.64272 | 7057 ft | 162 kts | 358° |
| 2026-04-23 19:35 | 39.75947 | -104.64259 | 6873 ft | 151 kts | 358° |
| 2026-04-23 19:35 | 39.76979 | -104.64246 | 6689 ft | 146 kts | 359° |
| 2026-04-23 19:36 | 39.77902 | -104.64236 | 6513 ft | 143 kts | 358° |
| 2026-04-23 19:36 | 39.78878 | -104.64224 | 6343 ft | 141 kts | 359° |
| 2026-04-23 19:36 | 39.79861 | -104.64212 | 6146 ft | 142 kts | 356° |
| 2026-04-23 19:36 | 39.80843 | -104.64200 | 5936 ft | 141 kts | 356° |
| 2026-04-23 19:37 | 39.81620 | -104.64190 | 5767 ft | 140 kts | 357° |
| 2026-04-23 19:37 | 39.82588 | -104.64178 | 5559 ft | 139 kts | 355° |
| 2026-04-23 19:37 | 39.83550 | -104.64164 | 5379 ft | 134 kts | 356° |
| 2026-04-23 19:37 | 39.84362 | -104.64162 | 5364 ft | 94 kts | 1° |
| 2026-04-23 19:38 | 39.84843 | -104.64154 | 5362 ft | 44 kts | 0° |
| 2026-04-23 19:38 | 39.84997 | -104.64154 | 5360 ft | 12 kts | 356° |
| 2026-04-23 19:38 | 39.85094 | -104.64173 | 5359 ft | 15 kts | 348° |
| 2026-04-23 19:38 | 39.85198 | -104.64212 | 5358 ft | 16 kts | 339° |
| 2026-04-23 19:39 | 39.85298 | -104.64288 | 5356 ft | 17 kts | 334° |
| 2026-04-23 19:39 | 39.85407 | -104.64351 | 5354 ft | 17 kts | 347° |
| 2026-04-23 19:39 | 39.85529 | -104.64356 | 5355 ft | 18 kts | 0° |
| 2026-04-23 19:39 | 39.85615 | -104.64356 | 5354 ft | 9 kts | 0° |
| 2026-04-23 19:40 | 39.85662 | -104.64406 | 5353 ft | 10 kts | 282° |
| 2026-04-23 19:40 | 39.85665 | -104.64502 | 5353 ft | 11 kts | 270° |
| 2026-04-23 19:40 | 39.85665 | -104.64595 | 5356 ft | 10 kts | 271° |
| 2026-04-23 19:40 | 39.85667 | -104.64709 | 5359 ft | 15 kts | 270° |
| 2026-04-23 19:41 | 39.85668 | -104.64834 | 5363 ft | 15 kts | 270° |
| 2026-04-23 19:41 | 39.85669 | -104.64997 | 5368 ft | 18 kts | 270° |
| 2026-04-23 19:41 | 39.85670 | -104.65101 | 5371 ft | 16 kts | 270° |
| 2026-04-23 19:41 | 39.85671 | -104.65280 | 5376 ft | 13 kts | 270° |
| 2026-04-23 19:42 | 39.85672 | -104.65389 | 5379 ft | 12 kts | 271° |
| 2026-04-23 19:42 | 39.85673 | -104.65487 | 5383 ft | 10 kts | 271° |
| 2026-04-23 19:42 | 39.85674 | -104.65575 | 5385 ft | 12 kts | 270° |
| 2026-04-23 19:42 | 39.85674 | -104.65688 | 5389 ft | 12 kts | 270° |
| 2026-04-23 19:43 | 39.85675 | -104.65786 | 5391 ft | 10 kts | 270° |
| 2026-04-23 19:43 | 39.85675 | -104.65870 | 5393 ft | 9 kts | 270° |
| 2026-04-23 19:43 | 39.85676 | -104.65979 | 5393 ft | 14 kts | 270° |
| 2026-04-23 19:43 | 39.85677 | -104.66108 | 5394 ft | 14 kts | 270° |
| 2026-04-23 19:44 | 39.85678 | -104.66197 | 5392 ft | 16 kts | 271° |
| 2026-04-23 19:44 | 39.85654 | -104.66345 | 5385 ft | 10 kts | 204° |
| 2026-04-23 19:44 | 39.85611 | -104.66352 | 5389 ft | 8 kts | 182° |
| 2026-04-23 19:44 | 39.85573 | -104.66352 | 5390 ft | 3 kts | 180° |
| 2026-04-23 19:45 | 39.85525 | -104.66352 | 5392 ft | 12 kts | 180° |
| 2026-04-23 19:45 | 39.85452 | -104.66353 | 5394 ft | 9 kts | 180° |
| 2026-04-23 19:45 | 39.85394 | -104.66354 | 5394 ft | 9 kts | 180° |
| 2026-04-23 19:45 | 39.85338 | -104.66356 | 5394 ft | 7 kts | 186° |
| 2026-04-23 19:46 | 39.85297 | -104.66413 | 5392 ft | 12 kts | 262° |
| 2026-04-23 19:46 | 39.85291 | -104.66526 | 5388 ft | 14 kts | 258° |
| 2026-04-23 19:46 | 39.85271 | -104.66624 | 5386 ft | 13 kts | 267° |
| 2026-04-23 19:46 | 39.85275 | -104.66747 | 5383 ft | 12 kts | 267° |
| 2026-04-23 19:47 | 39.85273 | -104.66826 | 5379 ft | 8 kts | 268° |
| 2026-04-23 19:47 | 39.85291 | -104.66890 | 5383 ft | 6 kts | 331° |
| 2026-04-23 19:47 | 39.85334 | -104.66890 | 5384 ft | 3 kts | 2° |
| 2026-04-23 19:47 | 39.85340 | -104.66890 | 5384 ft | 0 kts | 1° |